Terminal Aerodrome Forecast
Issued by NWS Grand Forks, ND

Home | Current Version | Previous Version | Graphics & Text | Print | Product List | Glossary On
Versions: 1 2 3 4 5 6 7 8 9 10 11 12 13 14 15 16 17 18 19
798
FTUS43 KFGF 090150 AAA
TAFGFK
TAF AMD
KGFK 090150Z 0902/0924 31010KT P6SM OVC035
      TEMPO 0902/0904 -SN BKN016
     FM090400 33009KT P6SM BKN030
     FM090600 32007KT P6SM BKN035
     FM091800 29006KT P6SM BKN030=

USA.gov is the U.S. government's official web portal to all federal, state and local government web resources and services.